sensor_id;sensor_type;location;lat;lon;timestamp;temperature;humidity
23291;DHT22;11814;44.686;10.842;2023-10-31T00:01:33;19.30;99.90
23291;DHT22;11814;44.686;10.842;2023-10-31T00:04:05;19.30;99.90
23291;DHT22;11814;44.686;10.842;2023-10-31T00:06:31;19.30;99.90
23291;DHT22;11814;44.686;10.842;2023-10-31T00:08:56;19.40;99.90
23291;DHT22;11814;44.686;10.842;2023-10-31T00:11:25;19.50;99.00
23291;DHT22;11814;44.686;10.842;2023-10-31T00:13:54;19.60;98.20
23291;DHT22;11814;44.686;10.842;2023-10-31T00:16:22;19.60;97.70
23291;DHT22;11814;44.686;10.842;2023-10-31T00:18:51;19.50;97.40
23291;DHT22;11814;44.686;10.842;2023-10-31T00:21:19;19.50;97.40
23291;DHT22;11814;44.686;10.842;2023-10-31T00:23:50;19.40;97.20
23291;DHT22;11814;44.686;10.842;2023-10-31T00:26:18;19.50;97.10
23291;DHT22;11814;44.686;10.842;2023-10-31T00:28:47;19.40;97.10
23291;DHT22;11814;44.686;10.842;2023-10-31T00:31:19;19.40;97.10
23291;DHT22;11814;44.686;10.842;2023-10-31T00:33:53;19.40;97.30
23291;DHT22;11814;44.686;10.842;2023-10-31T00:36:26;19.30;97.40
23291;DHT22;11814;44.686;10.842;2023-10-31T00:39:06;19.20;97.50
23291;DHT22;11814;44.686;10.842;2023-10-31T00:41:32;19.20;97.50
23291;DHT22;11814;44.686;10.842;2023-10-31T00:44:01;19.20;97.30
23291;DHT22;11814;44.686;10.842;2023-10-31T00:46:29;19.20;97.10
23291;DHT22;11814;44.686;10.842;2023-10-31T00:48:55;19.20;96.60
23291;DHT22;11814;44.686;10.842;2023-10-31T00:51:21;19.20;96.30
23291;DHT22;11814;44.686;10.842;2023-10-31T00:53:49;19.30;95.90
23291;DHT22;11814;44.686;10.842;2023-10-31T00:56:24;19.30;95.50
23291;DHT22;11814;44.686;10.842;2023-10-31T00:58:52;19.40;95.20
23291;DHT22;11814;44.686;10.842;2023-10-31T01:01:17;19.30;95.20
23291;DHT22;11814;44.686;10.842;2023-10-31T01:03:51;19.30;95.40
23291;DHT22;11814;44.686;10.842;2023-10-31T01:06:17;19.30;95.60
23291;DHT22;11814;44.686;10.842;2023-10-31T01:08:46;19.20;95.80
23291;DHT22;11814;44.686;10.842;2023-10-31T01:11:20;19.20;96.00
23291;DHT22;11814;44.686;10.842;2023-10-31T01:13:49;19.20;96.10
23291;DHT22;11814;44.686;10.842;2023-10-31T01:16:26;19.20;96.20
23291;DHT22;11814;44.686;10.842;2023-10-31T01:19:00;19.20;96.20
23291;DHT22;11814;44.686;10.842;2023-10-31T01:21:29;19.20;96.40
23291;DHT22;11814;44.686;10.842;2023-10-31T01:23:55;19.10;96.50
23291;DHT22;11814;44.686;10.842;2023-10-31T01:26:23;19.10;96.70
23291;DHT22;11814;44.686;10.842;2023-10-31T01:29:00;19.00;97.20
23291;DHT22;11814;44.686;10.842;2023-10-31T01:31:35;19.00;97.80
23291;DHT22;11814;44.686;10.842;2023-10-31T01:34:05;18.90;98.70
23291;DHT22;11814;44.686;10.842;2023-10-31T01:36:36;18.80;99.60
23291;DHT22;11814;44.686;10.842;2023-10-31T01:39:08;18.70;99.90
23291;DHT22;11814;44.686;10.842;2023-10-31T01:41:34;18.60;99.90
23291;DHT22;11814;44.686;10.842;2023-10-31T01:44:08;18.60;99.90
23291;DHT22;11814;44.686;10.842;2023-10-31T01:46:39;18.60;99.90
23291;DHT22;11814;44.686;10.842;2023-10-31T01:49:08;18.60;99.90
23291;DHT22;11814;44.686;10.842;2023-10-31T01:51:33;18.50;99.90
23291;DHT22;11814;44.686;10.842;2023-10-31T01:54:05;18.50;99.90
23291;DHT22;11814;44.686;10.842;2023-10-31T01:56:44;18.40;99.90
23291;DHT22;11814;44.686;10.842;2023-10-31T01:59:19;18.40;99.90
23291;DHT22;11814;44.686;10.842;2023-10-31T02:01:44;18.30;99.90
23291;DHT22;11814;44.686;10.842;2023-10-31T02:04:13;18.20;99.90
23291;DHT22;11814;44.686;10.842;2023-10-31T02:06:42;18.10;99.90
23291;DHT22;11814;44.686;10.842;2023-10-31T02:09:07;18.10;99.90
23291;DHT22;11814;44.686;10.842;2023-10-31T02:11:33;18.00;99.90
23291;DHT22;11814;44.686;10.842;2023-10-31T02:14:01;18.00;99.90
23291;DHT22;11814;44.686;10.842;2023-10-31T02:16:26;17.90;99.90
23291;DHT22;11814;44.686;10.842;2023-10-31T02:18:52;17.90;99.90
23291;DHT22;11814;44.686;10.842;2023-10-31T02:21:19;17.90;99.90
23291;DHT22;11814;44.686;10.842;2023-10-31T02:23:58;17.90;99.90
23291;DHT22;11814;44.686;10.842;2023-10-31T02:26:33;17.90;99.90
23291;DHT22;11814;44.686;10.842;2023-10-31T02:28:59;17.90;99.90
23291;DHT22;11814;44.686;10.842;2023-10-31T02:31:48;17.90;99.90
23291;DHT22;11814;44.686;10.842;2023-10-31T02:34:14;17.90;99.90
23291;DHT22;11814;44.686;10.842;2023-10-31T02:36:45;17.90;99.90
23291;DHT22;11814;44.686;10.842;2023-10-31T02:39:11;17.80;99.90
23291;DHT22;11814;44.686;10.842;2023-10-31T02:41:57;17.80;99.90
23291;DHT22;11814;44.686;10.842;2023-10-31T02:44:26;17.80;99.90
23291;DHT22;11814;44.686;10.842;2023-10-31T02:46:51;17.80;99.90
23291;DHT22;11814;44.686;10.842;2023-10-31T02:49:20;17.70;99.90
23291;DHT22;11814;44.686;10.842;2023-10-31T02:52:01;17.70;99.90
23291;DHT22;11814;44.686;10.842;2023-10-31T02:54:29;17.70;99.90
23291;DHT22;11814;44.686;10.842;2023-10-31T02:56:54;17.70;99.90
23291;DHT22;11814;44.686;10.842;2023-10-31T02:59:27;17.70;99.90
23291;DHT22;11814;44.686;10.842;2023-10-31T03:02:11;17.70;99.90
23291;DHT22;11814;44.686;10.842;2023-10-31T03:04:40;17.70;99.90
23291;DHT22;11814;44.686;10.842;2023-10-31T03:07:12;17.70;99.90
23291;DHT22;11814;44.686;10.842;2023-10-31T03:09:40;17.60;99.90
23291;DHT22;11814;44.686;10.842;2023-10-31T03:12:09;17.50;99.90
23291;DHT22;11814;44.686;10.842;2023-10-31T03:14:38;17.40;99.90
23291;DHT22;11814;44.686;10.842;2023-10-31T03:17:05;17.40;99.90
23291;DHT22;11814;44.686;10.842;2023-10-31T03:19:31;17.50;99.90
23291;DHT22;11814;44.686;10.842;2023-10-31T03:21:57;17.40;99.90
23291;DHT22;11814;44.686;10.842;2023-10-31T03:24:22;17.40;99.90
23291;DHT22;11814;44.686;10.842;2023-10-31T03:26:54;17.40;99.90
23291;DHT22;11814;44.686;10.842;2023-10-31T03:29:20;17.40;99.90
23291;DHT22;11814;44.686;10.842;2023-10-31T03:31:46;17.40;99.90
23291;DHT22;11814;44.686;10.842;2023-10-31T03:34:20;17.40;99.90
23291;DHT22;11814;44.686;10.842;2023-10-31T03:36:49;17.40;99.90
23291;DHT22;11814;44.686;10.842;2023-10-31T03:39:15;17.40;99.90
23291;DHT22;11814;44.686;10.842;2023-10-31T03:41:53;17.40;99.90
23291;DHT22;11814;44.686;10.842;2023-10-31T03:44:26;17.40;99.90
23291;DHT22;11814;44.686;10.842;2023-10-31T03:46:57;17.40;99.90
23291;DHT22;11814;44.686;10.842;2023-10-31T03:49:23;17.40;99.90
23291;DHT22;11814;44.686;10.842;2023-10-31T03:51:49;17.40;99.90
23291;DHT22;11814;44.686;10.842;2023-10-31T03:54:14;17.40;99.90
23291;DHT22;11814;44.686;10.842;2023-10-31T03:56:51;17.40;99.90
23291;DHT22;11814;44.686;10.842;2023-10-31T03:59:20;17.40;99.90
23291;DHT22;11814;44.686;10.842;2023-10-31T04:01:52;17.40;99.90
23291;DHT22;11814;44.686;10.842;2023-10-31T04:04:20;17.40;99.90
23291;DHT22;11814;44.686;10.842;2023-10-31T04:06:56;17.50;99.90
23291;DHT22;11814;44.686;10.842;2023-10-31T04:09:27;17.40;99.90
23291;DHT22;11814;44.686;10.842;2023-10-31T04:11:58;17.40;99.90
23291;DHT22;11814;44.686;10.842;2023-10-31T04:14:24;17.40;99.90
23291;DHT22;11814;44.686;10.842;2023-10-31T04:16:55;17.40;99.90
23291;DHT22;11814;44.686;10.842;2023-10-31T04:19:21;17.40;99.90
23291;DHT22;11814;44.686;10.842;2023-10-31T04:21:46;17.40;99.90
23291;DHT22;11814;44.686;10.842;2023-10-31T04:24:12;17.40;99.90
23291;DHT22;11814;44.686;10.842;2023-10-31T04:26:40;17.40;99.90
23291;DHT22;11814;44.686;10.842;2023-10-31T04:29:09;17.40;99.90
23291;DHT22;11814;44.686;10.842;2023-10-31T04:31:37;17.40;99.90
23291;DHT22;11814;44.686;10.842;2023-10-31T04:34:03;17.40;99.90
23291;DHT22;11814;44.686;10.842;2023-10-31T04:36:35;17.40;99.90
23291;DHT22;11814;44.686;10.842;2023-10-31T04:39:06;17.40;99.90
23291;DHT22;11814;44.686;10.842;2023-10-31T04:41:38;17.40;99.90
23291;DHT22;11814;44.686;10.842;2023-10-31T04:44:06;17.30;99.90
23291;DHT22;11814;44.686;10.842;2023-10-31T04:46:35;17.30;99.90
23291;DHT22;11814;44.686;10.842;2023-10-31T04:49:06;17.30;99.90
23291;DHT22;11814;44.686;10.842;2023-10-31T04:51:49;17.30;99.90
23291;DHT22;11814;44.686;10.842;2023-10-31T04:54:15;17.20;99.90
23291;DHT22;11814;44.686;10.842;2023-10-31T04:56:41;17.20;99.90
23291;DHT22;11814;44.686;10.842;2023-10-31T04:59:09;17.20;99.90
23291;DHT22;11814;44.686;10.842;2023-10-31T05:01:59;17.30;99.90
23291;DHT22;11814;44.686;10.842;2023-10-31T05:04:31;17.30;99.90
23291;DHT22;11814;44.686;10.842;2023-10-31T05:06:59;17.20;99.90
23291;DHT22;11814;44.686;10.842;2023-10-31T05:09:32;17.20;99.90
23291;DHT22;11814;44.686;10.842;2023-10-31T05:12:13;17.20;99.90
23291;DHT22;11814;44.686;10.842;2023-10-31T05:14:44;17.20;99.90
23291;DHT22;11814;44.686;10.842;2023-10-31T05:17:12;17.20;99.90
23291;DHT22;11814;44.686;10.842;2023-10-31T05:19:47;17.10;99.90
23291;DHT22;11814;44.686;10.842;2023-10-31T05:22:19;17.20;99.90
23291;DHT22;11814;44.686;10.842;2023-10-31T05:24:45;17.30;99.90
23291;DHT22;11814;44.686;10.842;2023-10-31T05:27:10;17.40;99.90
23291;DHT22;11814;44.686;10.842;2023-10-31T05:29:38;17.40;99.90
23291;DHT22;11814;44.686;10.842;2023-10-31T05:32:07;17.40;99.90
23291;DHT22;11814;44.686;10.842;2023-10-31T05:34:32;17.40;99.90
23291;DHT22;11814;44.686;10.842;2023-10-31T05:36:58;17.30;99.90
23291;DHT22;11814;44.686;10.842;2023-10-31T05:39:27;17.30;99.90
23291;DHT22;11814;44.686;10.842;2023-10-31T05:41:56;17.30;99.90
23291;DHT22;11814;44.686;10.842;2023-10-31T05:44:24;17.40;98.00
23291;DHT22;11814;44.686;10.842;2023-10-31T05:47:02;17.50;96.30
23291;DHT22;11814;44.686;10.842;2023-10-31T05:49:27;17.60;95.50
23291;DHT22;11814;44.686;10.842;2023-10-31T05:51:59;17.60;95.10
23291;DHT22;11814;44.686;10.842;2023-10-31T05:54:24;17.50;94.70
23291;DHT22;11814;44.686;10.842;2023-10-31T05:56:57;17.50;94.60
23291;DHT22;11814;44.686;10.842;2023-10-31T05:59:23;17.40;94.60
23291;DHT22;11814;44.686;10.842;2023-10-31T06:01:48;17.40;94.30
23291;DHT22;11814;44.686;10.842;2023-10-31T06:04:15;17.50;93.90
23291;DHT22;11814;44.686;10.842;2023-10-31T06:06:59;17.50;93.30
23291;DHT22;11814;44.686;10.842;2023-10-31T06:09:40;17.60;92.80
23291;DHT22;11814;44.686;10.842;2023-10-31T06:12:08;17.60;92.50
23291;DHT22;11814;44.686;10.842;2023-10-31T06:14:35;17.70;92.30
23291;DHT22;11814;44.686;10.842;2023-10-31T06:17:01;17.70;91.70
23291;DHT22;11814;44.686;10.842;2023-10-31T06:19:34;17.70;91.20
23291;DHT22;11814;44.686;10.842;2023-10-31T06:22:03;17.80;90.90
23291;DHT22;11814;44.686;10.842;2023-10-31T06:24:32;17.80;90.60
23291;DHT22;11814;44.686;10.842;2023-10-31T06:27:00;17.80;90.30
23291;DHT22;11814;44.686;10.842;2023-10-31T06:29:34;17.90;89.50
23291;DHT22;11814;44.686;10.842;2023-10-31T06:32:08;18.00;88.90
23291;DHT22;11814;44.686;10.842;2023-10-31T06:34:37;18.00;88.70
23291;DHT22;11814;44.686;10.842;2023-10-31T06:37:05;18.00;88.20
23291;DHT22;11814;44.686;10.842;2023-10-31T06:39:34;18.10;87.90
23291;DHT22;11814;44.686;10.842;2023-10-31T06:41:59;18.20;87.10
23291;DHT22;11814;44.686;10.842;2023-10-31T06:44:28;18.30;86.10
23291;DHT22;11814;44.686;10.842;2023-10-31T06:47:01;18.30;85.80
23291;DHT22;11814;44.686;10.842;2023-10-31T06:49:33;18.30;86.00
23291;DHT22;11814;44.686;10.842;2023-10-31T06:51:59;18.30;86.00
23291;DHT22;11814;44.686;10.842;2023-10-31T06:54:27;18.20;85.80
23291;DHT22;11814;44.686;10.842;2023-10-31T06:56:52;18.20;85.90
23291;DHT22;11814;44.686;10.842;2023-10-31T06:59:21;18.30;86.00
23291;DHT22;11814;44.686;10.842;2023-10-31T07:01:49;18.30;86.10
23291;DHT22;11814;44.686;10.842;2023-10-31T07:04:15;18.40;86.50
23291;DHT22;11814;44.686;10.842;2023-10-31T07:06:47;18.40;86.40
23291;DHT22;11814;44.686;10.842;2023-10-31T07:09:15;18.50;86.40
23291;DHT22;11814;44.686;10.842;2023-10-31T07:11:50;18.50;86.40
23291;DHT22;11814;44.686;10.842;2023-10-31T07:14:16;18.50;86.60
23291;DHT22;11814;44.686;10.842;2023-10-31T07:16:45;18.40;86.80
23291;DHT22;11814;44.686;10.842;2023-10-31T07:19:13;18.00;87.90
23291;DHT22;11814;44.686;10.842;2023-10-31T07:21:45;17.60;89.70
23291;DHT22;11814;44.686;10.842;2023-10-31T07:24:11;17.20;90.70
23291;DHT22;11814;44.686;10.842;2023-10-31T07:26:44;16.90;92.00
23291;DHT22;11814;44.686;10.842;2023-10-31T07:29:12;16.50;93.40
23291;DHT22;11814;44.686;10.842;2023-10-31T07:31:44;16.20;94.80
23291;DHT22;11814;44.686;10.842;2023-10-31T07:34:15;15.90;96.60
23291;DHT22;11814;44.686;10.842;2023-10-31T07:36:41;15.50;99.00
23291;DHT22;11814;44.686;10.842;2023-10-31T07:39:12;15.30;99.90
23291;DHT22;11814;44.686;10.842;2023-10-31T07:41:54;15.20;99.90
23291;DHT22;11814;44.686;10.842;2023-10-31T07:44:32;14.90;99.90
23291;DHT22;11814;44.686;10.842;2023-10-31T07:47:08;14.80;99.90
23291;DHT22;11814;44.686;10.842;2023-10-31T07:49:34;14.70;99.90
23291;DHT22;11814;44.686;10.842;2023-10-31T07:52:00;14.60;99.90
23291;DHT22;11814;44.686;10.842;2023-10-31T07:54:28;14.50;99.90
23291;DHT22;11814;44.686;10.842;2023-10-31T07:56:54;14.40;99.90
23291;DHT22;11814;44.686;10.842;2023-10-31T07:59:25;14.30;99.90
23291;DHT22;11814;44.686;10.842;2023-10-31T08:01:59;14.20;99.90
23291;DHT22;11814;44.686;10.842;2023-10-31T08:04:34;14.10;99.90
23291;DHT22;11814;44.686;10.842;2023-10-31T08:06:59;14.10;99.90
23291;DHT22;11814;44.686;10.842;2023-10-31T08:09:27;14.00;99.90
23291;DHT22;11814;44.686;10.842;2023-10-31T08:11:54;14.00;99.90
23291;DHT22;11814;44.686;10.842;2023-10-31T08:14:19;14.00;99.90
23291;DHT22;11814;44.686;10.842;2023-10-31T08:16:53;14.00;99.90
23291;DHT22;11814;44.686;10.842;2023-10-31T08:19:24;14.10;99.90
23291;DHT22;11814;44.686;10.842;2023-10-31T08:21:49;14.10;99.90
23291;DHT22;11814;44.686;10.842;2023-10-31T08:24:15;14.20;99.90
23291;DHT22;11814;44.686;10.842;2023-10-31T08:26:46;14.20;99.90
23291;DHT22;11814;44.686;10.842;2023-10-31T08:29:15;14.30;99.90
23291;DHT22;11814;44.686;10.842;2023-10-31T08:32:00;14.40;99.90
23291;DHT22;11814;44.686;10.842;2023-10-31T08:34:29;14.50;99.90
23291;DHT22;11814;44.686;10.842;2023-10-31T08:36:58;14.70;99.90
23291;DHT22;11814;44.686;10.842;2023-10-31T08:39:30;15.40;99.90
23291;DHT22;11814;44.686;10.842;2023-10-31T08:42:06;16.20;99.90
23291;DHT22;11814;44.686;10.842;2023-10-31T08:44:41;16.60;99.90
23291;DHT22;11814;44.686;10.842;2023-10-31T08:47:07;16.70;99.90
23291;DHT22;11814;44.686;10.842;2023-10-31T08:49:41;16.60;99.70
23291;DHT22;11814;44.686;10.842;2023-10-31T08:52:09;16.60;99.00
23291;DHT22;11814;44.686;10.842;2023-10-31T08:54:46;17.10;99.10
23291;DHT22;11814;44.686;10.842;2023-10-31T08:57:14;17.40;96.30
23291;DHT22;11814;44.686;10.842;2023-10-31T08:59:42;17.50;94.10
23291;DHT22;11814;44.686;10.842;2023-10-31T09:02:11;17.60;93.10
23291;DHT22;11814;44.686;10.842;2023-10-31T09:04:37;17.70;92.40
23291;DHT22;11814;44.686;10.842;2023-10-31T09:07:03;17.60;91.70
23291;DHT22;11814;44.686;10.842;2023-10-31T09:09:28;17.50;91.30
23291;DHT22;11814;44.686;10.842;2023-10-31T09:11:54;17.30;90.80
23291;DHT22;11814;44.686;10.842;2023-10-31T09:14:31;17.20;90.80
23291;DHT22;11814;44.686;10.842;2023-10-31T09:17:05;17.10;90.50
23291;DHT22;11814;44.686;10.842;2023-10-31T09:19:36;17.00;90.50
23291;DHT22;11814;44.686;10.842;2023-10-31T09:22:02;17.00;90.50
23291;DHT22;11814;44.686;10.842;2023-10-31T09:24:30;17.20;90.50
23291;DHT22;11814;44.686;10.842;2023-10-31T09:27:10;17.70;90.50
23291;DHT22;11814;44.686;10.842;2023-10-31T09:29:46;17.90;89.20
23291;DHT22;11814;44.686;10.842;2023-10-31T09:32:12;18.00;87.80
23291;DHT22;11814;44.686;10.842;2023-10-31T09:34:37;18.10;86.40
23291;DHT22;11814;44.686;10.842;2023-10-31T09:37:03;18.20;85.40
23291;DHT22;11814;44.686;10.842;2023-10-31T09:40:05;18.30;85.40
23291;DHT22;11814;44.686;10.842;2023-10-31T09:42:24;18.70;85.70
23291;DHT22;11814;44.686;10.842;2023-10-31T09:44:49;18.80;84.20
23291;DHT22;11814;44.686;10.842;2023-10-31T09:47:18;18.90;82.30
23291;DHT22;11814;44.686;10.842;2023-10-31T09:49:47;19.00;81.80
23291;DHT22;11814;44.686;10.842;2023-10-31T09:52:16;18.90;81.10
23291;DHT22;11814;44.686;10.842;2023-10-31T09:54:51;19.00;80.90
23291;DHT22;11814;44.686;10.842;2023-10-31T09:57:20;19.10;79.90
23291;DHT22;11814;44.686;10.842;2023-10-31T09:59:52;19.00;78.60
23291;DHT22;11814;44.686;10.842;2023-10-31T10:02:21;19.00;78.20
23291;DHT22;11814;44.686;10.842;2023-10-31T10:04:47;19.00;78.10
23291;DHT22;11814;44.686;10.842;2023-10-31T10:07:19;19.00;77.80
23291;DHT22;11814;44.686;10.842;2023-10-31T10:09:46;19.00;77.60
23291;DHT22;11814;44.686;10.842;2023-10-31T10:12:21;19.10;77.00
23291;DHT22;11814;44.686;10.842;2023-10-31T10:14:47;19.40;77.40
23291;DHT22;11814;44.686;10.842;2023-10-31T10:17:50;19.80;76.00
23291;DHT22;11814;44.686;10.842;2023-10-31T10:20:12;20.30;76.10
23291;DHT22;11814;44.686;10.842;2023-10-31T10:22:44;20.90;75.10
23291;DHT22;11814;44.686;10.842;2023-10-31T10:25:17;21.40;72.60
23291;DHT22;11814;44.686;10.842;2023-10-31T10:27:46;21.80;70.70
23291;DHT22;11814;44.686;10.842;2023-10-31T10:30:18;21.80;69.60
23291;DHT22;11814;44.686;10.842;2023-10-31T10:32:49;21.70;68.20
23291;DHT22;11814;44.686;10.842;2023-10-31T10:35:19;21.40;67.20
23291;DHT22;11814;44.686;10.842;2023-10-31T10:37:49;21.10;67.90
23291;DHT22;11814;44.686;10.842;2023-10-31T10:40:16;20.90;68.10
23291;DHT22;11814;44.686;10.842;2023-10-31T10:42:48;20.80;68.80
23291;DHT22;11814;44.686;10.842;2023-10-31T10:45:25;20.70;68.80
23291;DHT22;11814;44.686;10.842;2023-10-31T10:47:52;20.60;69.30
23291;DHT22;11814;44.686;10.842;2023-10-31T10:50:22;20.60;68.70
23291;DHT22;11814;44.686;10.842;2023-10-31T10:53:26;20.60;68.80
23291;DHT22;11814;44.686;10.842;2023-10-31T10:55:59;20.60;68.50
23291;DHT22;11814;44.686;10.842;2023-10-31T10:58:40;20.60;68.00
23291;DHT22;11814;44.686;10.842;2023-10-31T11:01:08;20.70;68.10
23291;DHT22;11814;44.686;10.842;2023-10-31T11:03:49;20.90;68.50
23291;DHT22;11814;44.686;10.842;2023-10-31T11:06:18;21.30;68.20
23291;DHT22;11814;44.686;10.842;2023-10-31T11:08:44;21.40;67.90
23291;DHT22;11814;44.686;10.842;2023-10-31T11:11:10;21.90;67.00
23291;DHT22;11814;44.686;10.842;2023-10-31T11:13:43;22.20;65.60
23291;DHT22;11814;44.686;10.842;2023-10-31T11:16:29;22.40;64.30
23291;DHT22;11814;44.686;10.842;2023-10-31T11:19:01;22.70;63.60
23291;DHT22;11814;44.686;10.842;2023-10-31T11:21:31;22.50;64.00
23291;DHT22;11814;44.686;10.842;2023-10-31T11:24:23;22.40;64.30
23291;DHT22;11814;44.686;10.842;2023-10-31T11:26:53;22.40;64.10
23291;DHT22;11814;44.686;10.842;2023-10-31T11:29:24;22.30;64.00
23291;DHT22;11814;44.686;10.842;2023-10-31T11:31:55;22.30;63.90
23291;DHT22;11814;44.686;10.842;2023-10-31T11:34:28;22.20;64.00
23291;DHT22;11814;44.686;10.842;2023-10-31T11:37:33;22.20;64.10
23291;DHT22;11814;44.686;10.842;2023-10-31T11:40:26;22.20;63.70
23291;DHT22;11814;44.686;10.842;2023-10-31T11:42:53;22.20;63.40
23291;DHT22;11814;44.686;10.842;2023-10-31T11:45:43;22.20;63.60
23291;DHT22;11814;44.686;10.842;2023-10-31T11:48:15;22.30;63.40
23291;DHT22;11814;44.686;10.842;2023-10-31T11:50:47;22.30;63.40
23291;DHT22;11814;44.686;10.842;2023-10-31T11:53:16;22.30;63.50
23291;DHT22;11814;44.686;10.842;2023-10-31T11:55:51;22.30;63.10
23291;DHT22;11814;44.686;10.842;2023-10-31T11:58:22;22.40;62.80
23291;DHT22;11814;44.686;10.842;2023-10-31T12:01:00;22.40;62.60
23291;DHT22;11814;44.686;10.842;2023-10-31T12:03:42;22.40;62.50
23291;DHT22;11814;44.686;10.842;2023-10-31T12:06:15;22.40;62.80
23291;DHT22;11814;44.686;10.842;2023-10-31T12:08:46;22.40;62.90
23291;DHT22;11814;44.686;10.842;2023-10-31T12:11:17;22.40;62.00
23291;DHT22;11814;44.686;10.842;2023-10-31T12:14:00;22.40;61.10
23291;DHT22;11814;44.686;10.842;2023-10-31T12:16:28;22.40;61.30
23291;DHT22;11814;44.686;10.842;2023-10-31T12:19:05;22.50;61.30
23291;DHT22;11814;44.686;10.842;2023-10-31T12:21:46;22.50;61.20
23291;DHT22;11814;44.686;10.842;2023-10-31T12:24:17;22.50;61.10
23291;DHT22;11814;44.686;10.842;2023-10-31T12:26:45;22.50;61.40
23291;DHT22;11814;44.686;10.842;2023-10-31T12:29:26;22.50;60.80
23291;DHT22;11814;44.686;10.842;2023-10-31T12:31:52;22.50;62.40
23291;DHT22;11814;44.686;10.842;2023-10-31T12:34:20;22.50;62.30
23291;DHT22;11814;44.686;10.842;2023-10-31T12:36:53;22.50;62.70
23291;DHT22;11814;44.686;10.842;2023-10-31T12:39:26;22.50;62.20
23291;DHT22;11814;44.686;10.842;2023-10-31T12:41:55;22.50;62.10
23291;DHT22;11814;44.686;10.842;2023-10-31T12:44:25;22.40;62.30
23291;DHT22;11814;44.686;10.842;2023-10-31T12:46:52;22.50;62.40
23291;DHT22;11814;44.686;10.842;2023-10-31T12:49:19;22.40;62.80
23291;DHT22;11814;44.686;10.842;2023-10-31T12:52:00;22.50;63.40
23291;DHT22;11814;44.686;10.842;2023-10-31T12:54:37;22.50;63.70
23291;DHT22;11814;44.686;10.842;2023-10-31T12:57:18;22.60;63.70
23291;DHT22;11814;44.686;10.842;2023-10-31T12:59:58;22.60;63.50
23291;DHT22;11814;44.686;10.842;2023-10-31T13:02:24;22.50;64.00
23291;DHT22;11814;44.686;10.842;2023-10-31T13:04:52;22.60;64.40
23291;DHT22;11814;44.686;10.842;2023-10-31T13:07:26;22.60;63.90
23291;DHT22;11814;44.686;10.842;2023-10-31T13:09:53;22.60;63.20
23291;DHT22;11814;44.686;10.842;2023-10-31T13:12:30;22.60;63.20
23291;DHT22;11814;44.686;10.842;2023-10-31T13:15:01;22.70;64.30
23291;DHT22;11814;44.686;10.842;2023-10-31T13:17:56;22.70;64.90
23291;DHT22;11814;44.686;10.842;2023-10-31T13:20:23;22.70;65.50
23291;DHT22;11814;44.686;10.842;2023-10-31T13:22:49;22.70;64.90
23291;DHT22;11814;44.686;10.842;2023-10-31T13:25:17;22.70;63.30
23291;DHT22;11814;44.686;10.842;2023-10-31T13:27:50;22.70;62.90
23291;DHT22;11814;44.686;10.842;2023-10-31T13:30:28;22.60;62.40
23291;DHT22;11814;44.686;10.842;2023-10-31T13:32:56;22.60;62.10
23291;DHT22;11814;44.686;10.842;2023-10-31T13:35:25;22.50;62.00
23291;DHT22;11814;44.686;10.842;2023-10-31T13:37:51;22.50;61.80
23291;DHT22;11814;44.686;10.842;2023-10-31T13:40:21;22.50;62.30
23291;DHT22;11814;44.686;10.842;2023-10-31T13:42:50;22.50;62.50
23291;DHT22;11814;44.686;10.842;2023-10-31T13:45:19;22.50;62.90
23291;DHT22;11814;44.686;10.842;2023-10-31T13:47:44;22.50;63.20
23291;DHT22;11814;44.686;10.842;2023-10-31T13:50:10;22.60;62.60
23291;DHT22;11814;44.686;10.842;2023-10-31T13:52:38;22.60;62.10
23291;DHT22;11814;44.686;10.842;2023-10-31T13:55:04;22.50;61.40
23291;DHT22;11814;44.686;10.842;2023-10-31T13:57:33;22.50;61.70
23291;DHT22;11814;44.686;10.842;2023-10-31T13:59:59;22.50;61.80
23291;DHT22;11814;44.686;10.842;2023-10-31T14:02:28;22.50;61.80
23291;DHT22;11814;44.686;10.842;2023-10-31T14:05:19;22.50;61.80
23291;DHT22;11814;44.686;10.842;2023-10-31T14:07:49;22.50;61.20
23291;DHT22;11814;44.686;10.842;2023-10-31T14:10:25;22.40;61.20
23291;DHT22;11814;44.686;10.842;2023-10-31T14:12:52;22.50;61.50
23291;DHT22;11814;44.686;10.842;2023-10-31T14:15:32;22.40;61.70
23291;DHT22;11814;44.686;10.842;2023-10-31T14:18:07;22.40;61.70
23291;DHT22;11814;44.686;10.842;2023-10-31T14:20:33;22.40;62.20
23291;DHT22;11814;44.686;10.842;2023-10-31T14:23:01;22.40;62.60
23291;DHT22;11814;44.686;10.842;2023-10-31T14:25:36;22.30;62.60
23291;DHT22;11814;44.686;10.842;2023-10-31T14:28:04;22.30;62.60
23291;DHT22;11814;44.686;10.842;2023-10-31T14:30:29;22.30;62.90
23291;DHT22;11814;44.686;10.842;2023-10-31T14:32:55;22.20;64.10
23291;DHT22;11814;44.686;10.842;2023-10-31T14:35:23;22.30;64.60
23291;DHT22;11814;44.686;10.842;2023-10-31T14:37:52;22.20;65.20
23291;DHT22;11814;44.686;10.842;2023-10-31T14:40:20;22.20;65.40
23291;DHT22;11814;44.686;10.842;2023-10-31T14:42:48;22.20;65.40
23291;DHT22;11814;44.686;10.842;2023-10-31T14:45:17;22.20;64.80
23291;DHT22;11814;44.686;10.842;2023-10-31T14:47:46;22.20;65.20
23291;DHT22;11814;44.686;10.842;2023-10-31T14:50:12;22.10;66.40
23291;DHT22;11814;44.686;10.842;2023-10-31T14:52:37;22.10;67.00
23291;DHT22;11814;44.686;10.842;2023-10-31T14:55:06;22.00;66.10
23291;DHT22;11814;44.686;10.842;2023-10-31T14:57:38;21.90;66.20
23291;DHT22;11814;44.686;10.842;2023-10-31T15:00:06;21.90;66.10
23291;DHT22;11814;44.686;10.842;2023-10-31T15:02:37;21.80;66.40
23291;DHT22;11814;44.686;10.842;2023-10-31T15:05:17;21.80;66.50
23291;DHT22;11814;44.686;10.842;2023-10-31T15:07:43;21.80;66.70
23291;DHT22;11814;44.686;10.842;2023-10-31T15:10:09;21.80;66.70
23291;DHT22;11814;44.686;10.842;2023-10-31T15:12:38;21.60;66.50
23291;DHT22;11814;44.686;10.842;2023-10-31T15:15:03;21.60;66.60
23291;DHT22;11814;44.686;10.842;2023-10-31T15:17:35;21.50;66.50
23291;DHT22;11814;44.686;10.842;2023-10-31T15:20:17;21.50;66.70
23291;DHT22;11814;44.686;10.842;2023-10-31T15:22:42;21.40;66.80
23291;DHT22;11814;44.686;10.842;2023-10-31T15:25:26;21.30;67.20
23291;DHT22;11814;44.686;10.842;2023-10-31T15:27:55;21.30;67.50
23291;DHT22;11814;44.686;10.842;2023-10-31T15:30:23;21.10;67.80
23291;DHT22;11814;44.686;10.842;2023-10-31T15:32:48;21.20;68.20
23291;DHT22;11814;44.686;10.842;2023-10-31T15:35:17;21.10;68.70
23291;DHT22;11814;44.686;10.842;2023-10-31T15:37:43;21.00;69.10